createdAt,value
2023-12-23T00:00:44.860Z,2.00
2023-12-23T00:03:12.185Z,2.17
2023-12-23T00:05:39.497Z,1.77
2023-12-23T00:08:06.948Z,1.90
2023-12-23T00:10:34.374Z,1.63
2023-12-23T00:13:01.919Z,2.25
2023-12-23T00:15:29.256Z,1.95
2023-12-23T00:17:56.991Z,2.30
2023-12-23T00:20:24.721Z,1.70
2023-12-23T00:22:52.136Z,1.60
2023-12-23T00:25:19.432Z,1.80
2023-12-23T00:27:47.082Z,1.60
2023-12-23T00:30:17.025Z,1.30
2023-12-23T00:32:45.940Z,1.45
2023-12-23T00:35:13.526Z,1.40
2023-12-23T00:37:41.149Z,1.52
2023-12-23T00:40:08.871Z,1.52
2023-12-23T00:42:37.590Z,2.15
2023-12-23T00:45:06.557Z,1.70
2023-12-23T00:47:37.468Z,1.45
2023-12-23T00:50:06.406Z,1.60
2023-12-23T00:52:34.047Z,1.77
2023-12-23T00:55:03.353Z,1.05
2023-12-23T00:57:30.658Z,1.05
2023-12-23T00:59:59.105Z,1.48
2023-12-23T01:02:26.539Z,1.08
2023-12-23T01:04:56.049Z,1.20
2023-12-23T01:07:23.635Z,1.05
2023-12-23T01:09:50.983Z,0.80
2023-12-23T01:12:18.393Z,1.13
2023-12-23T01:14:46.147Z,0.90
2023-12-23T01:17:13.542Z,0.90
2023-12-23T01:19:41.080Z,0.90
2023-12-23T01:22:08.592Z,0.85
2023-12-23T01:24:36.033Z,0.80
2023-12-23T01:27:04.093Z,0.80
2023-12-23T01:29:31.469Z,0.98
2023-12-23T01:31:58.982Z,0.90
2023-12-23T01:34:27.314Z,0.80
2023-12-23T01:36:54.641Z,0.70
2023-12-23T01:39:21.948Z,0.85
2023-12-23T01:41:49.309Z,1.02
2023-12-23T01:44:16.686Z,0.95
2023-12-23T01:46:44.169Z,1.27
2023-12-23T01:49:11.641Z,1.05
2023-12-23T01:51:39.215Z,0.93
2023-12-23T01:54:07.187Z,1.20
2023-12-23T01:56:34.906Z,1.10
2023-12-23T01:59:04.244Z,1.40
2023-12-23T02:01:33.197Z,0.82
2023-12-23T02:04:01.448Z,0.90
2023-12-23T02:06:28.796Z,0.75
2023-12-23T02:08:56.273Z,0.80
2023-12-23T02:11:34.566Z,0.80
2023-12-23T02:14:08.070Z,0.88
2023-12-23T02:16:36.075Z,0.90
2023-12-23T02:19:03.974Z,0.70
2023-12-23T02:21:31.307Z,0.90
2023-12-23T02:23:58.637Z,0.80
2023-12-23T02:26:26.608Z,0.90
2023-12-23T02:28:54.722Z,0.70
2023-12-23T02:31:22.727Z,0.77
2023-12-23T02:33:50.739Z,0.80
2023-12-23T02:36:24.850Z,0.70
2023-12-23T02:38:52.390Z,0.60
2023-12-23T02:41:19.805Z,0.90
2023-12-23T02:43:48.506Z,1.20
2023-12-23T02:46:15.927Z,0.70
2023-12-23T02:48:44.012Z,0.70
2023-12-23T02:51:11.775Z,0.80
2023-12-23T02:53:39.109Z,0.82
2023-12-23T02:56:06.756Z,0.77
2023-12-23T02:58:34.175Z,0.75
2023-12-23T03:01:01.553Z,0.80
2023-12-23T03:03:29.017Z,0.80
2023-12-23T03:05:56.428Z,0.82
2023-12-23T03:08:23.828Z,0.70
2023-12-23T03:10:51.237Z,0.93
2023-12-23T03:13:18.809Z,0.90
2023-12-23T03:15:46.158Z,0.90
2023-12-23T03:18:13.646Z,0.90
2023-12-23T03:20:41.085Z,0.90
2023-12-23T03:23:08.440Z,0.88
2023-12-23T03:25:35.897Z,0.95
2023-12-23T03:28:03.250Z,0.80
2023-12-23T03:30:30.620Z,0.70
2023-12-23T03:32:58.649Z,0.70
2023-12-23T03:35:25.999Z,0.70
2023-12-23T03:37:53.419Z,0.95
2023-12-23T03:40:21.897Z,0.90
2023-12-23T03:42:49.441Z,0.70
2023-12-23T03:45:18.200Z,0.70
2023-12-23T03:47:45.643Z,0.70
2023-12-23T03:50:13.158Z,0.80
2023-12-23T03:52:40.555Z,0.70
2023-12-23T03:55:08.240Z,0.80
2023-12-23T03:57:35.585Z,0.75
2023-12-23T04:00:04.465Z,0.90
2023-12-23T04:02:41.218Z,0.80
2023-12-23T04:05:08.743Z,0.80
2023-12-23T04:07:36.383Z,0.80
2023-12-23T04:10:04.143Z,0.60
2023-12-23T04:12:31.655Z,0.80
2023-12-23T04:14:59.314Z,0.82
2023-12-23T04:17:26.747Z,0.90
2023-12-23T04:19:54.090Z,0.60
2023-12-23T04:22:21.450Z,0.80
2023-12-23T04:24:48.767Z,0.80
2023-12-23T04:27:16.143Z,0.70
2023-12-23T04:29:43.488Z,0.80
2023-12-23T04:32:11.805Z,0.77
2023-12-23T04:34:39.566Z,0.85
2023-12-23T04:37:06.964Z,0.80
2023-12-23T04:39:34.372Z,0.70
2023-12-23T04:42:03.937Z,0.90
2023-12-23T04:44:32.289Z,0.60
2023-12-23T04:46:59.802Z,0.75
2023-12-23T04:49:27.182Z,0.80
2023-12-23T04:51:54.784Z,0.70
2023-12-23T04:54:22.261Z,0.75
2023-12-23T04:56:49.646Z,0.80
2023-12-23T04:59:17.085Z,0.90
2023-12-23T05:01:44.452Z,0.75
2023-12-23T05:04:11.886Z,0.80
2023-12-23T05:06:39.547Z,1.15
2023-12-23T05:09:07.181Z,0.82
2023-12-23T05:11:34.540Z,0.80
2023-12-23T05:14:01.901Z,0.80
2023-12-23T05:16:29.307Z,0.90
2023-12-23T05:18:57.071Z,0.82
2023-12-23T05:21:24.488Z,0.80
2023-12-23T05:23:51.784Z,0.80
2023-12-23T05:26:22.438Z,0.75
2023-12-23T05:28:50.201Z,0.98
2023-12-23T05:31:17.864Z,0.80
2023-12-23T05:33:45.315Z,0.90
2023-12-23T05:36:12.948Z,0.90
2023-12-23T05:38:40.463Z,0.80
2023-12-23T05:41:10.336Z,0.90
2023-12-23T05:43:37.755Z,1.25
2023-12-23T05:46:05.174Z,0.90
2023-12-23T05:48:32.632Z,0.82
2023-12-23T05:51:00.047Z,0.80
2023-12-23T05:53:27.451Z,0.90
2023-12-23T05:55:54.905Z,0.90
2023-12-23T05:58:22.354Z,0.90
2023-12-23T06:00:51.078Z,0.80
2023-12-23T06:03:18.577Z,0.93
2023-12-23T06:05:46.138Z,0.80
2023-12-23T06:08:13.503Z,1.10
2023-12-23T06:10:50.363Z,1.05
2023-12-23T06:13:24.539Z,1.00
2023-12-23T06:15:51.975Z,1.00
2023-12-23T06:18:19.328Z,0.90
2023-12-23T06:20:46.728Z,1.17
2023-12-23T06:23:14.199Z,1.13
2023-12-23T06:25:41.638Z,1.90
2023-12-23T06:28:09.056Z,1.50
2023-12-23T06:30:36.402Z,1.52
2023-12-23T06:33:04.309Z,1.02
2023-12-23T06:35:31.845Z,1.00
2023-12-23T06:37:59.256Z,1.35
2023-12-23T06:40:26.635Z,1.17
2023-12-23T06:42:54.127Z,1.15
2023-12-23T06:45:21.469Z,1.20
2023-12-23T06:47:49.080Z,1.20
2023-12-23T06:50:16.944Z,1.20
2023-12-23T06:52:44.434Z,1.20
2023-12-23T06:55:12.615Z,1.05
2023-12-23T06:57:40.569Z,1.10
2023-12-23T07:00:08.910Z,1.67
2023-12-23T07:02:36.294Z,1.00
2023-12-23T07:05:04.666Z,0.90
2023-12-23T07:07:32.055Z,1.25
2023-12-23T07:10:05.031Z,1.50
2023-12-23T07:12:35.182Z,1.35
2023-12-23T07:15:04.456Z,1.27
2023-12-23T07:17:38.698Z,1.50
2023-12-23T07:20:10.295Z,1.17
2023-12-23T07:22:37.769Z,1.73
2023-12-23T07:25:06.349Z,1.13
2023-12-23T07:27:33.731Z,1.65
2023-12-23T07:30:01.217Z,1.73
2023-12-23T07:32:28.720Z,1.67
2023-12-23T07:34:56.222Z,1.55
2023-12-23T07:37:23.637Z,1.40
2023-12-23T07:39:51.011Z,1.77
2023-12-23T07:42:18.360Z,2.13
2023-12-23T07:44:46.079Z,1.50
2023-12-23T07:47:13.904Z,1.70
2023-12-23T07:49:41.343Z,1.42
2023-12-23T07:52:08.867Z,1.70
2023-12-23T07:54:36.356Z,1.92
2023-12-23T07:57:03.664Z,1.73
2023-12-23T07:59:31.093Z,1.75
2023-12-23T08:01:58.556Z,2.80
2023-12-23T08:04:26.123Z,1.80
2023-12-23T08:06:53.907Z,1.80
2023-12-23T08:09:21.233Z,1.55
2023-12-23T08:11:48.564Z,2.78
2023-12-23T08:14:15.940Z,1.60
2023-12-23T08:16:43.890Z,1.80
2023-12-23T08:19:11.664Z,1.90
2023-12-23T08:21:39.071Z,2.60
2023-12-23T08:24:06.468Z,2.40
2023-12-23T08:26:35.112Z,2.05
2023-12-23T08:29:02.469Z,2.10
2023-12-23T08:31:30.145Z,2.58
2023-12-23T08:33:57.559Z,1.90
2023-12-23T08:36:25.085Z,2.28
2023-12-23T08:38:54.646Z,2.55
2023-12-23T08:41:21.987Z,2.08
2023-12-23T08:43:49.410Z,2.33
2023-12-23T08:46:17.650Z,3.22
2023-12-23T08:48:45.092Z,2.53
2023-12-23T08:51:12.446Z,2.47
2023-12-23T08:53:39.897Z,2.70
2023-12-23T08:56:07.731Z,2.88
2023-12-23T08:58:35.107Z,3.05
2023-12-23T09:01:02.761Z,2.83
2023-12-23T09:03:31.586Z,2.50
2023-12-23T09:05:59.316Z,2.80
2023-12-23T09:08:26.941Z,3.47
2023-12-23T09:10:54.360Z,2.60
2023-12-23T09:13:21.781Z,2.13
2023-12-23T09:15:49.064Z,3.45
2023-12-23T09:18:16.447Z,2.75
2023-12-23T09:20:43.930Z,3.10
2023-12-23T09:23:11.268Z,2.40
2023-12-23T09:25:38.699Z,2.60
2023-12-23T09:28:06.578Z,2.40
2023-12-23T09:30:33.928Z,2.53
2023-12-23T09:33:01.518Z,2.38
2023-12-23T09:35:29.245Z,2.90
2023-12-23T09:37:57.410Z,3.63
2023-12-23T09:40:24.790Z,2.78
2023-12-23T09:42:52.596Z,2.67
2023-12-23T09:45:20.827Z,3.10
2023-12-23T09:47:48.295Z,2.92
2023-12-23T09:50:15.968Z,2.85
2023-12-23T09:52:43.508Z,2.60
2023-12-23T09:55:13.065Z,2.22
2023-12-23T09:57:40.532Z,2.20
2023-12-23T10:00:08.150Z,2.17
2023-12-23T10:02:44.048Z,2.05
2023-12-23T10:05:11.651Z,2.40
2023-12-23T10:07:39.484Z,2.38
2023-12-23T10:10:07.160Z,2.00
2023-12-23T10:12:34.894Z,2.33
2023-12-23T10:15:02.294Z,2.67
2023-12-23T10:17:29.744Z,2.40
2023-12-23T10:19:57.575Z,2.40
2023-12-23T10:22:27.847Z,2.10
2023-12-23T10:24:55.976Z,2.15
2023-12-23T10:27:24.005Z,2.13
2023-12-23T10:29:52.701Z,2.10
2023-12-23T10:32:25.188Z,1.75
2023-12-23T10:34:56.786Z,1.70
2023-12-23T10:37:26.204Z,1.60
2023-12-23T10:39:59.796Z,1.80
2023-12-23T10:42:27.939Z,1.77
2023-12-23T10:44:55.980Z,1.50
2023-12-23T10:47:23.516Z,1.50
2023-12-23T10:49:51.315Z,1.55
2023-12-23T10:52:19.107Z,1.50
2023-12-23T10:54:47.283Z,2.20
2023-12-23T10:57:14.668Z,1.40
2023-12-23T10:59:43.135Z,1.50
2023-12-23T11:02:14.993Z,1.50
2023-12-23T11:04:44.822Z,1.65
2023-12-23T11:07:13.299Z,1.67
2023-12-23T11:09:42.432Z,1.45
2023-12-23T11:12:10.063Z,1.40
2023-12-23T11:14:38.092Z,1.33
2023-12-23T11:17:24.271Z,1.42
2023-12-23T11:19:51.730Z,1.65
2023-12-23T11:22:25.896Z,1.40
2023-12-23T11:24:53.502Z,2.28
2023-12-23T11:27:50.332Z,1.48
2023-12-23T11:30:17.860Z,1.40
2023-12-23T11:32:45.747Z,1.20
2023-12-23T11:35:14.212Z,1.30
2023-12-23T11:37:55.234Z,1.30
2023-12-23T11:40:22.763Z,1.77
2023-12-23T11:42:51.204Z,2.13
2023-12-23T11:45:18.900Z,1.92
2023-12-23T11:47:46.321Z,1.40
2023-12-23T11:50:13.945Z,1.73
2023-12-23T11:52:42.153Z,2.03
2023-12-23T11:55:09.870Z,1.40
2023-12-23T11:57:37.281Z,1.17
2023-12-23T12:00:08.372Z,1.42
2023-12-23T12:02:35.829Z,1.92
2023-12-23T12:05:03.872Z,1.70
2023-12-23T12:07:31.693Z,2.03
2023-12-23T12:09:59.001Z,1.52
2023-12-23T12:12:26.524Z,2.13
2023-12-23T12:14:53.851Z,1.90
2023-12-23T12:17:21.488Z,1.60
2023-12-23T12:19:48.940Z,1.33
2023-12-23T12:22:16.973Z,1.50
2023-12-23T12:24:44.840Z,1.48
2023-12-23T12:27:12.235Z,1.67
2023-12-23T12:29:39.637Z,1.55
2023-12-23T12:32:13.394Z,1.40
2023-12-23T12:34:40.934Z,1.45
2023-12-23T12:37:09.674Z,2.45
2023-12-23T12:39:37.129Z,2.67
2023-12-23T12:42:04.698Z,2.92
2023-12-23T12:44:34.937Z,3.40
2023-12-23T12:47:02.759Z,3.08
2023-12-23T12:49:30.563Z,2.03
2023-12-23T12:51:57.878Z,1.80
2023-12-23T12:54:30.246Z,2.08
2023-12-23T12:56:57.709Z,2.08
2023-12-23T12:59:25.149Z,2.03
2023-12-23T13:01:52.585Z,1.75
2023-12-23T13:04:19.990Z,1.80
2023-12-23T13:06:47.372Z,1.92
2023-12-23T13:09:14.727Z,1.90
2023-12-23T13:11:42.133Z,1.90
2023-12-23T13:14:09.581Z,2.00
2023-12-23T13:16:36.986Z,1.48
2023-12-23T13:19:04.566Z,1.60
2023-12-23T13:21:32.028Z,1.58
2023-12-23T13:23:59.323Z,1.60
2023-12-23T13:26:26.823Z,2.20
2023-12-23T13:28:54.244Z,1.70
2023-12-23T13:31:22.401Z,1.70
2023-12-23T13:33:49.845Z,1.92
2023-12-23T13:36:17.227Z,1.65
2023-12-23T13:38:45.624Z,2.20
2023-12-23T13:41:16.861Z,1.83
2023-12-23T13:43:44.557Z,2.35
2023-12-23T13:46:11.978Z,2.42
2023-12-23T13:48:39.430Z,2.00
2023-12-23T13:51:06.863Z,2.50
2023-12-23T13:53:34.370Z,2.38
2023-12-23T13:56:01.867Z,2.08
2023-12-23T13:58:29.353Z,2.50
2023-12-23T14:00:56.759Z,2.22
2023-12-23T14:03:24.407Z,2.05
2023-12-23T14:05:51.856Z,2.22
2023-12-23T14:08:19.226Z,2.45
2023-12-23T14:10:49.173Z,1.88
2023-12-23T14:13:17.427Z,2.00
2023-12-23T14:15:45.002Z,2.00
2023-12-23T14:18:12.465Z,1.80
2023-12-23T14:20:39.964Z,2.60
2023-12-23T14:23:08.134Z,3.10
2023-12-23T14:25:36.080Z,2.78
2023-12-23T14:28:03.458Z,3.03
2023-12-23T14:30:31.004Z,2.58
2023-12-23T14:32:58.992Z,2.60
2023-12-23T14:35:26.402Z,2.75
2023-12-23T14:37:54.095Z,2.50
2023-12-23T14:40:21.524Z,3.13
2023-12-23T14:42:49.020Z,2.42
2023-12-23T14:45:18.223Z,2.17
2023-12-23T14:47:47.289Z,2.35
2023-12-23T14:50:20.122Z,2.58
2023-12-23T14:52:48.249Z,2.70
2023-12-23T14:55:16.807Z,2.80
2023-12-23T14:57:44.730Z,2.20
2023-12-23T15:00:12.633Z,2.20
2023-12-23T15:02:40.064Z,2.63
2023-12-23T15:05:07.956Z,2.97
2023-12-23T15:07:35.291Z,3.28
2023-12-23T15:10:02.574Z,3.72
2023-12-23T15:12:30.063Z,3.67
2023-12-23T15:14:57.470Z,4.75
2023-12-23T15:17:24.877Z,4.35
2023-12-23T15:19:52.296Z,4.63
2023-12-23T15:22:19.624Z,5.53
2023-12-23T15:24:46.918Z,4.57
2023-12-23T15:27:14.447Z,5.30
2023-12-23T15:29:41.880Z,4.65
2023-12-23T15:32:09.377Z,4.97
2023-12-23T15:34:36.819Z,5.72
2023-12-23T15:37:04.450Z,5.35
2023-12-23T15:39:31.823Z,4.57
2023-12-23T15:41:59.218Z,3.90
2023-12-23T15:44:26.651Z,4.35
2023-12-23T15:46:54.037Z,3.78
2023-12-23T15:49:21.542Z,3.70
2023-12-23T15:51:48.864Z,4.00
2023-12-23T15:54:16.329Z,4.00
2023-12-23T15:56:43.697Z,3.92
2023-12-23T15:59:11.072Z,2.90
2023-12-23T16:01:38.417Z,2.53
2023-12-23T16:04:05.894Z,2.20
2023-12-23T16:06:34.217Z,2.10
2023-12-23T16:09:01.737Z,2.50
2023-12-23T16:11:30.953Z,2.47
2023-12-23T16:14:00.632Z,3.00
2023-12-23T16:16:29.305Z,3.25
2023-12-23T16:18:56.711Z,3.92
2023-12-23T16:21:24.358Z,3.95
2023-12-23T16:23:51.703Z,3.10
2023-12-23T16:26:19.592Z,3.20
2023-12-23T16:28:47.342Z,4.25
2023-12-23T16:31:15.043Z,3.88
2023-12-23T16:33:42.864Z,3.72
2023-12-23T16:36:14.937Z,4.05
2023-12-23T16:38:42.737Z,3.60
2023-12-23T16:41:13.672Z,3.60
2023-12-23T16:43:41.182Z,3.30
2023-12-23T16:46:11.535Z,3.40
2023-12-23T16:48:38.989Z,3.22
2023-12-23T16:51:06.617Z,3.47
2023-12-23T16:53:34.123Z,3.00
2023-12-23T16:56:05.107Z,2.75
2023-12-23T16:58:33.777Z,2.42
2023-12-23T17:01:01.190Z,3.20
2023-12-23T17:03:28.580Z,2.58
2023-12-23T17:05:56.120Z,2.95
2023-12-23T17:08:23.582Z,2.50
2023-12-23T17:10:50.892Z,2.70
2023-12-23T17:13:18.332Z,2.55
2023-12-23T17:15:45.770Z,2.85
2023-12-23T17:18:13.294Z,2.60
2023-12-23T17:20:40.651Z,3.00
2023-12-23T17:23:08.545Z,2.55
2023-12-23T17:25:35.930Z,2.30
2023-12-23T17:28:05.404Z,3.60
2023-12-23T17:30:35.414Z,3.78
2023-12-23T17:33:02.966Z,2.35
2023-12-23T17:35:30.541Z,2.78
2023-12-23T17:37:59.481Z,2.83
2023-12-23T17:40:26.897Z,2.90
2023-12-23T17:42:54.473Z,2.80
2023-12-23T17:45:21.908Z,2.88
2023-12-23T17:47:51.119Z,2.58
2023-12-23T17:50:18.813Z,3.33
2023-12-23T17:52:46.193Z,3.25
2023-12-23T17:55:13.665Z,2.70
2023-12-23T17:57:40.963Z,3.10
2023-12-23T18:00:08.578Z,4.32
2023-12-23T18:02:36.106Z,4.07
2023-12-23T18:05:03.631Z,4.82
2023-12-23T18:07:31.250Z,3.97
2023-12-23T18:09:58.581Z,3.35
2023-12-23T18:12:25.912Z,3.65
2023-12-23T18:14:53.289Z,2.95
2023-12-23T18:17:20.687Z,3.10
2023-12-23T18:19:48.073Z,3.03
2023-12-23T18:22:15.377Z,2.95
2023-12-23T18:24:42.826Z,2.85
2023-12-23T18:27:10.385Z,2.60
2023-12-23T18:29:37.777Z,2.75
2023-12-23T18:32:05.460Z,3.00
2023-12-23T18:34:34.524Z,3.25
2023-12-23T18:37:02.071Z,3.28
2023-12-23T18:39:29.417Z,3.10
2023-12-23T18:41:56.846Z,3.33
2023-12-23T18:44:24.222Z,3.20
2023-12-23T18:46:51.880Z,3.15
2023-12-23T18:49:19.153Z,3.60
2023-12-23T18:51:46.623Z,3.92
2023-12-23T18:54:15.327Z,3.45
2023-12-23T18:56:42.680Z,3.53
2023-12-23T18:59:10.861Z,3.20
2023-12-23T19:01:38.251Z,4.15
2023-12-23T19:04:08.281Z,4.25
2023-12-23T19:06:35.838Z,4.35
2023-12-23T19:09:03.219Z,6.15
2023-12-23T19:11:30.668Z,5.97
2023-12-23T19:13:58.116Z,6.47
2023-12-23T19:16:25.461Z,5.65
2023-12-23T19:18:53.020Z,3.35
2023-12-23T19:21:20.531Z,3.10
2023-12-23T19:23:47.839Z,2.90
2023-12-23T19:26:25.133Z,2.75
2023-12-23T19:28:52.497Z,2.97
2023-12-23T19:31:19.835Z,2.83
2023-12-23T19:33:47.265Z,3.28
2023-12-23T19:36:15.449Z,3.10
2023-12-23T19:38:42.923Z,3.22
2023-12-23T19:41:10.398Z,3.28
2023-12-23T19:43:38.140Z,3.10
2023-12-23T19:46:06.886Z,4.07
2023-12-23T19:48:34.288Z,3.33
2023-12-23T19:51:02.064Z,4.07
2023-12-23T19:53:29.946Z,3.60
2023-12-23T19:55:57.503Z,3.72
2023-12-23T19:58:24.968Z,3.45
2023-12-23T20:00:52.337Z,3.53
2023-12-23T20:03:19.680Z,3.42
2023-12-23T20:05:47.246Z,3.65
2023-12-23T20:08:14.645Z,3.40
2023-12-23T20:10:42.701Z,3.50
2023-12-23T20:13:10.030Z,4.00
2023-12-23T20:15:37.420Z,4.03
2023-12-23T20:18:08.797Z,3.60
2023-12-23T20:20:36.460Z,3.83
2023-12-23T20:23:03.998Z,3.83
2023-12-23T20:25:32.011Z,3.60
2023-12-23T20:27:59.315Z,4.35
2023-12-23T20:30:26.804Z,3.53
2023-12-23T20:32:54.586Z,3.70
2023-12-23T20:35:22.127Z,3.90
2023-12-23T20:37:49.576Z,3.60
2023-12-23T20:40:17.021Z,3.72
2023-12-23T20:42:47.304Z,3.78
2023-12-23T20:45:14.646Z,3.72
2023-12-23T20:47:42.698Z,3.45
2023-12-23T20:50:10.207Z,4.10
2023-12-23T20:52:37.730Z,3.42
2023-12-23T20:55:05.211Z,4.80
2023-12-23T20:57:32.538Z,4.18
2023-12-23T20:59:59.895Z,3.63
2023-12-23T21:02:27.662Z,3.08
2023-12-23T21:04:55.353Z,3.45
2023-12-23T21:07:25.094Z,3.45
2023-12-23T21:09:55.236Z,2.78
2023-12-23T21:12:23.025Z,3.10
2023-12-23T21:14:50.787Z,2.95
2023-12-23T21:17:18.088Z,2.60
2023-12-23T21:19:46.409Z,2.60
2023-12-23T21:22:13.848Z,2.72
2023-12-23T21:24:42.006Z,2.83
2023-12-23T21:27:09.462Z,3.03
2023-12-23T21:29:37.517Z,3.22
2023-12-23T21:32:06.333Z,3.33
2023-12-23T21:34:33.775Z,3.13
2023-12-23T21:37:01.175Z,3.08
2023-12-23T21:39:29.031Z,3.40
2023-12-23T21:41:56.362Z,3.05
2023-12-23T21:44:24.414Z,3.20
2023-12-23T21:46:52.861Z,3.15
2023-12-23T21:49:20.645Z,2.80
2023-12-23T21:51:48.110Z,2.90
2023-12-23T21:54:15.507Z,3.30
2023-12-23T21:56:43.036Z,2.95
2023-12-23T21:59:10.510Z,3.30
2023-12-23T22:01:38.005Z,3.03
2023-12-23T22:04:05.379Z,3.00
2023-12-23T22:06:32.840Z,3.05
2023-12-23T22:09:00.169Z,3.17
2023-12-23T22:11:27.667Z,2.90
2023-12-23T22:13:55.180Z,3.10
2023-12-23T22:16:22.602Z,2.90
2023-12-23T22:18:50.496Z,2.63
2023-12-23T22:21:18.104Z,2.08
2023-12-23T22:23:45.513Z,2.38
2023-12-23T22:26:16.071Z,2.20
2023-12-23T22:28:43.879Z,2.10
2023-12-23T22:31:11.306Z,2.15
2023-12-23T22:33:38.809Z,1.90
2023-12-23T22:36:06.393Z,2.33
2023-12-23T22:38:33.878Z,2.03
2023-12-23T22:41:03.740Z,2.05
2023-12-23T22:43:32.366Z,1.83
2023-12-23T22:45:59.720Z,2.13
2023-12-23T22:48:27.179Z,2.70
2023-12-23T22:50:54.623Z,1.88
2023-12-23T22:53:22.010Z,2.10
2023-12-23T22:55:49.442Z,1.95
2023-12-23T22:58:16.833Z,2.67
2023-12-23T23:00:44.549Z,2.35
2023-12-23T23:03:12.017Z,2.03
2023-12-23T23:05:39.471Z,1.90
2023-12-23T23:08:07.230Z,1.92
2023-12-23T23:10:34.942Z,2.85
2023-12-23T23:13:02.743Z,2.30
2023-12-23T23:15:30.076Z,2.08
2023-12-23T23:17:57.674Z,2.10
2023-12-23T23:20:25.308Z,1.65
2023-12-23T23:22:53.095Z,1.67
2023-12-23T23:25:20.560Z,1.85
2023-12-23T23:27:48.014Z,2.15
2023-12-23T23:30:15.386Z,1.60
2023-12-23T23:32:42.892Z,1.60
2023-12-23T23:35:12.181Z,2.08
2023-12-23T23:37:39.933Z,2.05
2023-12-23T23:40:07.734Z,1.88
2023-12-23T23:42:35.062Z,1.67
2023-12-23T23:45:02.353Z,1.90
2023-12-23T23:47:29.825Z,2.00
2023-12-23T23:49:57.458Z,1.70
2023-12-23T23:52:24.834Z,2.45
2023-12-23T23:54:52.162Z,1.73
2023-12-23T23:57:19.533Z,2.00
2023-12-23T23:59:46.802Z,1.40
